sensor_id;sensor_type;location;lat;lon;timestamp;pressure;altitude;pressure_sealevel;temperature;humidity
30873;BME280;17579;42.690;2.586;2023-02-22T00:00:49;97294.09;;;11.89;64.11
30873;BME280;17579;42.690;2.586;2023-02-22T00:03:19;97302.19;;;11.88;64.05
30873;BME280;17579;42.690;2.586;2023-02-22T00:05:51;97303.72;;;11.90;64.16
30873;BME280;17579;42.690;2.586;2023-02-22T00:08:20;97303.72;;;11.90;64.23
30873;BME280;17579;42.690;2.586;2023-02-22T00:10:46;97299.94;;;11.93;64.08
30873;BME280;17579;42.690;2.586;2023-02-22T00:13:16;97295.75;;;11.90;64.21
30873;BME280;17579;42.690;2.586;2023-02-22T00:15:42;97291.97;;;11.93;64.20
30873;BME280;17579;42.690;2.586;2023-02-22T00:18:11;97296.06;;;11.87;63.98
30873;BME280;17579;42.690;2.586;2023-02-22T00:20:40;97288.13;;;11.87;64.06
30873;BME280;17579;42.690;2.586;2023-02-22T00:23:08;97290.78;;;11.87;64.19
30873;BME280;17579;42.690;2.586;2023-02-22T00:25:34;97285.63;;;11.86;64.23
30873;BME280;17579;42.690;2.586;2023-02-22T00:28:01;97284.94;;;11.84;63.88
30873;BME280;17579;42.690;2.586;2023-02-22T00:30:28;97288.59;;;11.83;64.02
30873;BME280;17579;42.690;2.586;2023-02-22T00:32:57;97284.94;;;11.84;63.88
30873;BME280;17579;42.690;2.586;2023-02-22T00:35:26;97287.72;;;11.82;63.84
30873;BME280;17579;42.690;2.586;2023-02-22T00:37:56;97282.44;;;11.82;63.93
30873;BME280;17579;42.690;2.586;2023-02-22T00:40:24;97289.41;;;11.83;63.90
30873;BME280;17579;42.690;2.586;2023-02-22T00:42:51;97282.44;;;11.82;64.04
30873;BME280;17579;42.690;2.586;2023-02-22T00:45:20;97290.69;;;11.79;63.91
30873;BME280;17579;42.690;2.586;2023-02-22T00:47:47;97292.38;;;11.80;63.89
30873;BME280;17579;42.690;2.586;2023-02-22T00:50:13;97289.72;;;11.80;63.98
30873;BME280;17579;42.690;2.586;2023-02-22T00:52:39;97285.41;;;11.79;63.95
30873;BME280;17579;42.690;2.586;2023-02-22T00:55:07;97292.53;;;11.78;64.06
30873;BME280;17579;42.690;2.586;2023-02-22T00:57:33;97285.41;;;11.79;63.94
30873;BME280;17579;42.690;2.586;2023-02-22T01:00:01;97289.88;;;11.78;63.84
30873;BME280;17579;42.690;2.586;2023-02-22T01:02:38;97285.41;;;11.79;63.97
30873;BME280;17579;42.690;2.586;2023-02-22T01:05:05;97287.22;;;11.78;64.04
30873;BME280;17579;42.690;2.586;2023-02-22T01:07:31;97293.19;;;11.81;64.02
30873;BME280;17579;42.690;2.586;2023-02-22T01:09:56;97289.56;;;11.82;64.01
30873;BME280;17579;42.690;2.586;2023-02-22T01:12:22;97276.97;;;11.84;63.71
30873;BME280;17579;42.690;2.586;2023-02-22T01:14:47;97271.84;;;11.82;64.07
30873;BME280;17579;42.690;2.586;2023-02-22T01:17:13;97269.34;;;11.81;64.04
30873;BME280;17579;42.690;2.586;2023-02-22T01:19:38;97272.00;;;11.81;63.71
30873;BME280;17579;42.690;2.586;2023-02-22T01:22:07;97284.41;;;11.80;63.80
30873;BME280;17579;42.690;2.586;2023-02-22T01:24:33;97280.25;;;11.77;63.89
30873;BME280;17579;42.690;2.586;2023-02-22T01:26:59;97267.31;;;11.74;63.72
30873;BME280;17579;42.690;2.586;2023-02-22T01:29:26;97271.25;;;11.70;63.85
30873;BME280;17579;42.690;2.586;2023-02-22T01:31:54;97269.72;;;11.68;63.93
30873;BME280;17579;42.690;2.586;2023-02-22T01:34:22;97263.91;;;11.64;63.66
30873;BME280;17579;42.690;2.586;2023-02-22T01:36:48;97259.59;;;11.63;63.73
30873;BME280;17579;42.690;2.586;2023-02-22T01:39:14;97266.00;;;11.60;63.62
30873;BME280;17579;42.690;2.586;2023-02-22T01:41:44;97267.44;;;11.55;63.44
30873;BME280;17579;42.690;2.586;2023-02-22T01:46:36;97250.34;;;11.49;63.67
30873;BME280;17579;42.690;2.586;2023-02-22T01:49:04;97264.03;;;11.44;64.01
30873;BME280;17579;42.690;2.586;2023-02-22T01:51:33;97252.78;;;11.42;63.80
30873;BME280;17579;42.690;2.586;2023-02-22T01:54:07;97247.78;;;11.39;63.35
30873;BME280;17579;42.690;2.586;2023-02-22T01:56:37;97249.72;;;11.37;63.41
30873;BME280;17579;42.690;2.586;2023-02-22T01:59:07;97249.22;;;11.34;63.81
30873;BME280;17579;42.690;2.586;2023-02-22T02:01:35;97241.28;;;11.34;63.40
30873;BME280;17579;42.690;2.586;2023-02-22T02:04:06;97240.56;;;11.32;63.78
30873;BME280;17579;42.690;2.586;2023-02-22T02:06:34;97244.34;;;11.29;63.38
30873;BME280;17579;42.690;2.586;2023-02-22T02:09:03;97242.84;;;11.26;63.52
30873;BME280;17579;42.690;2.586;2023-02-22T02:11:31;97234.38;;;11.23;63.64
30873;BME280;17579;42.690;2.586;2023-02-22T02:13:57;97233.69;;;11.21;63.57
30873;BME280;17579;42.690;2.586;2023-02-22T02:16:25;97227.84;;;11.17;63.49
30873;BME280;17579;42.690;2.586;2023-02-22T02:18:52;97233.28;;;11.16;63.45
30873;BME280;17579;42.690;2.586;2023-02-22T02:24:11;97223.16;;;11.11;63.36
30873;BME280;17579;42.690;2.586;2023-02-22T02:29:15;97214.81;;;11.06;63.47
30873;BME280;17579;42.690;2.586;2023-02-22T02:32:06;97217.25;;;10.99;63.58
30873;BME280;17579;42.690;2.586;2023-02-22T02:42:34;97216.56;;;10.97;63.62
30873;BME280;17579;42.690;2.586;2023-02-22T02:45:14;97215.03;;;10.95;63.55
30873;BME280;17579;42.690;2.586;2023-02-22T02:47:44;97212.09;;;10.98;63.39
30873;BME280;17579;42.690;2.586;2023-02-22T02:50:17;97207.94;;;10.95;63.43
30873;BME280;17579;42.690;2.586;2023-02-22T02:52:45;97211.09;;;10.99;63.66
30873;BME280;17579;42.690;2.586;2023-02-22T02:55:12;97212.63;;;11.01;63.28
30873;BME280;17579;42.690;2.586;2023-02-22T02:57:39;97212.63;;;11.01;63.44
30873;BME280;17579;42.690;2.586;2023-02-22T03:00:06;97210.81;;;11.02;63.40
30873;BME280;17579;42.690;2.586;2023-02-22T03:02:57;97207.94;;;10.95;63.35
30873;BME280;17579;42.690;2.586;2023-02-22T03:05:53;97205.28;;;10.95;63.46
30873;BME280;17579;42.690;2.586;2023-02-22T03:08:31;97200.81;;;10.96;63.41
30873;BME280;17579;42.690;2.586;2023-02-22T03:11:06;97196.66;;;10.93;63.55
30873;BME280;17579;42.690;2.586;2023-02-22T03:19:19;97199.44;;;10.91;63.19
30873;BME280;17579;42.690;2.586;2023-02-22T03:21:50;97198.06;;;10.87;63.33
30873;BME280;17579;42.690;2.586;2023-02-22T03:24:25;97198.38;;;10.84;63.79
30873;BME280;17579;42.690;2.586;2023-02-22T03:27:01;97193.09;;;10.84;63.30
30873;BME280;17579;42.690;2.586;2023-02-22T03:29:30;97199.91;;;10.87;63.73
30873;BME280;17579;42.690;2.586;2023-02-22T03:32:00;97195.31;;;10.89;63.71
30873;BME280;17579;42.690;2.586;2023-02-22T03:34:33;97193.63;;;10.88;63.50
30873;BME280;17579;42.690;2.586;2023-02-22T03:37:09;97191.81;;;10.88;63.97
30873;BME280;17579;42.690;2.586;2023-02-22T03:39:39;97199.16;;;10.95;63.74
30873;BME280;17579;42.690;2.586;2023-02-22T03:42:11;97202.94;;;10.92;63.77
30873;BME280;17579;42.690;2.586;2023-02-22T03:44:39;97198.31;;;10.94;63.66
30873;BME280;17579;42.690;2.586;2023-02-22T03:47:10;97194.00;;;10.93;63.68
30873;BME280;17579;42.690;2.586;2023-02-22T03:49:44;97201.13;;;10.92;63.69
30873;BME280;17579;42.690;2.586;2023-02-22T03:52:11;97186.63;;;10.97;63.52
30873;BME280;17579;42.690;2.586;2023-02-22T03:54:38;97188.44;;;10.96;63.65
30873;BME280;17579;42.690;2.586;2023-02-22T03:57:06;97194.41;;;10.98;63.83
30873;BME280;17579;42.690;2.586;2023-02-22T03:59:35;97196.22;;;10.98;63.59
30873;BME280;17579;42.690;2.586;2023-02-22T04:02:01;97188.28;;;10.98;63.63
30873;BME280;17579;42.690;2.586;2023-02-22T04:04:27;97183.00;;;10.98;63.90
30873;BME280;17579;42.690;2.586;2023-02-22T04:06:52;97182.16;;;10.97;63.86
30873;BME280;17579;42.690;2.586;2023-02-22T04:09:19;97188.56;;;10.95;63.69
30873;BME280;17579;42.690;2.586;2023-02-22T04:11:45;97186.63;;;10.97;63.76
30873;BME280;17579;42.690;2.586;2023-02-22T04:14:11;97184.13;;;10.95;63.67
30873;BME280;17579;42.690;2.586;2023-02-22T04:16:37;97186.22;;;10.91;63.60
30873;BME280;17579;42.690;2.586;2023-02-22T04:19:02;97181.38;;;10.87;63.51
30873;BME280;17579;42.690;2.586;2023-02-22T04:21:28;97179.84;;;10.84;63.71
30873;BME280;17579;42.690;2.586;2023-02-22T04:23:54;97187.94;;;10.83;63.69
30873;BME280;17579;42.690;2.586;2023-02-22T04:26:19;97183.63;;;10.82;63.77
30873;BME280;17579;42.690;2.586;2023-02-22T04:28:45;97185.44;;;10.81;63.77
30873;BME280;17579;42.690;2.586;2023-02-22T04:31:10;97177.50;;;10.81;63.44
30873;BME280;17579;42.690;2.586;2023-02-22T04:33:36;97189.06;;;10.80;63.60
30873;BME280;17579;42.690;2.586;2023-02-22T04:36:02;97189.06;;;10.80;63.62
30873;BME280;17579;42.690;2.586;2023-02-22T04:38:28;97192.72;;;10.79;63.27
30873;BME280;17579;42.690;2.586;2023-02-22T04:40:54;97189.22;;;10.79;63.15
30873;BME280;17579;42.690;2.586;2023-02-22T04:43:20;97186.72;;;10.77;63.67
30873;BME280;17579;42.690;2.586;2023-02-22T04:45:46;97192.88;;;10.78;63.43
30873;BME280;17579;42.690;2.586;2023-02-22T04:48:11;97193.69;;;10.78;63.66
30873;BME280;17579;42.690;2.586;2023-02-22T04:50:37;97192.88;;;10.78;63.65
30873;BME280;17579;42.690;2.586;2023-02-22T04:53:03;97194.81;;;10.75;63.48
30873;BME280;17579;42.690;2.586;2023-02-22T04:55:29;97188.16;;;10.71;63.42
30873;BME280;17579;42.690;2.586;2023-02-22T04:57:55;97197.09;;;10.70;63.45
30873;BME280;17579;42.690;2.586;2023-02-22T05:00:22;97196.38;;;10.68;63.51
30873;BME280;17579;42.690;2.586;2023-02-22T05:02:48;97198.34;;;10.66;63.80
30873;BME280;17579;42.690;2.586;2023-02-22T05:05:15;97204.63;;;10.65;63.93
30873;BME280;17579;42.690;2.586;2023-02-22T05:07:41;97208.09;;;10.66;63.58
30873;BME280;17579;42.690;2.586;2023-02-22T05:10:08;97209.91;;;10.65;63.78
30873;BME280;17579;42.690;2.586;2023-02-22T05:12:35;97208.09;;;10.66;63.60
30873;BME280;17579;42.690;2.586;2023-02-22T05:15:00;97205.44;;;10.66;63.73
30873;BME280;17579;42.690;2.586;2023-02-22T05:17:26;97202.78;;;10.66;63.73
30873;BME280;17579;42.690;2.586;2023-02-22T05:19:52;97206.44;;;10.65;63.96
30873;BME280;17579;42.690;2.586;2023-02-22T05:22:17;97214.22;;;10.66;63.57
30873;BME280;17579;42.690;2.586;2023-02-22T05:24:43;97210.56;;;10.67;63.85
30873;BME280;17579;42.690;2.586;2023-02-22T05:27:09;97210.56;;;10.67;63.79
30873;BME280;17579;42.690;2.586;2023-02-22T05:29:34;97208.09;;;10.66;63.85
30873;BME280;17579;42.690;2.586;2023-02-22T05:32:03;97198.50;;;10.65;63.95
30873;BME280;17579;42.690;2.586;2023-02-22T05:34:29;97211.72;;;10.65;63.73
30873;BME280;17579;42.690;2.586;2023-02-22T05:36:55;97211.88;;;10.63;63.64
30873;BME280;17579;42.690;2.586;2023-02-22T05:39:21;97210.88;;;10.64;63.66
30873;BME280;17579;42.690;2.586;2023-02-22T05:41:46;97206.59;;;10.63;63.91
30873;BME280;17579;42.690;2.586;2023-02-22T05:44:12;97211.03;;;10.63;64.09
30873;BME280;17579;42.690;2.586;2023-02-22T05:46:38;97211.16;;;10.61;64.11
30873;BME280;17579;42.690;2.586;2023-02-22T05:49:03;97213.97;;;10.60;63.74
30873;BME280;17579;42.690;2.586;2023-02-22T05:51:29;97204.50;;;10.57;63.94
30873;BME280;17579;42.690;2.586;2023-02-22T05:53:55;97213.44;;;10.56;63.80
30873;BME280;17579;42.690;2.586;2023-02-22T05:56:23;97213.72;;;10.53;63.83
30873;BME280;17579;42.690;2.586;2023-02-22T05:58:49;97206.63;;;10.53;64.04
30873;BME280;17579;42.690;2.586;2023-02-22T06:01:15;97203.13;;;10.53;63.91
30873;BME280;17579;42.690;2.586;2023-02-22T06:03:40;97208.31;;;10.54;63.73
30873;BME280;17579;42.690;2.586;2023-02-22T06:06:06;97211.63;;;10.56;63.76
30873;BME280;17579;42.690;2.586;2023-02-22T06:08:31;97205.50;;;10.56;63.87
30873;BME280;17579;42.690;2.586;2023-02-22T06:10:57;97208.97;;;10.56;63.99
30873;BME280;17579;42.690;2.586;2023-02-22T06:13:23;97205.22;;;10.59;63.71
30873;BME280;17579;42.690;2.586;2023-02-22T06:15:48;97206.84;;;10.60;64.02
30873;BME280;17579;42.690;2.586;2023-02-22T06:18:14;97213.66;;;10.63;63.97
30873;BME280;17579;42.690;2.586;2023-02-22T06:20:39;97223.28;;;10.64;64.03
30873;BME280;17579;42.690;2.586;2023-02-22T06:23:05;97217.84;;;10.65;63.92
30873;BME280;17579;42.690;2.586;2023-02-22T06:25:31;97222.00;;;10.68;64.06
30873;BME280;17579;42.690;2.586;2023-02-22T06:27:58;97215.75;;;10.69;64.06
30873;BME280;17579;42.690;2.586;2023-02-22T06:30:25;97214.59;;;10.71;63.85
30873;BME280;17579;42.690;2.586;2023-02-22T06:32:51;97210.00;;;10.73;63.81
30873;BME280;17579;42.690;2.586;2023-02-22T06:35:17;97220.59;;;10.73;63.97
30873;BME280;17579;42.690;2.586;2023-02-22T06:37:42;97221.25;;;10.75;63.92
30873;BME280;17579;42.690;2.586;2023-02-22T06:40:08;97225.75;;;10.75;63.52
30873;BME280;17579;42.690;2.586;2023-02-22T06:42:36;97231.47;;;10.70;63.49
30873;BME280;17579;42.690;2.586;2023-02-22T06:45:01;97223.81;;;10.67;63.70
30873;BME280;17579;42.690;2.586;2023-02-22T06:47:27;97229.94;;;10.68;63.81
30873;BME280;17579;42.690;2.586;2023-02-22T06:49:54;97234.38;;;10.67;63.77
30873;BME280;17579;42.690;2.586;2023-02-22T06:52:19;97232.59;;;10.68;63.78
30873;BME280;17579;42.690;2.586;2023-02-22T06:54:45;97238.84;;;10.67;63.67
30873;BME280;17579;42.690;2.586;2023-02-22T06:57:10;97232.44;;;10.69;63.83
30873;BME280;17579;42.690;2.586;2023-02-22T06:59:36;97238.41;;;10.71;63.77
30873;BME280;17579;42.690;2.586;2023-02-22T07:02:01;97235.75;;;10.71;63.59
30873;BME280;17579;42.690;2.586;2023-02-22T07:04:28;97235.91;;;10.70;63.70
30873;BME280;17579;42.690;2.586;2023-02-22T07:06:54;97238.84;;;10.67;63.55
30873;BME280;17579;42.690;2.586;2023-02-22T07:09:19;97238.19;;;10.65;63.86
30873;BME280;17579;42.690;2.586;2023-02-22T07:11:45;97240.69;;;10.66;64.00
30873;BME280;17579;42.690;2.586;2023-02-22T07:14:10;97243.16;;;10.68;64.12
30873;BME280;17579;42.690;2.586;2023-02-22T07:16:36;97240.22;;;10.71;63.88
30873;BME280;17579;42.690;2.586;2023-02-22T07:19:01;97246.19;;;10.73;63.92
30873;BME280;17579;42.690;2.586;2023-02-22T07:21:28;97243.41;;;10.74;64.17
30873;BME280;17579;42.690;2.586;2023-02-22T07:23:54;97234.63;;;10.74;64.08
30873;BME280;17579;42.690;2.586;2023-02-22T07:26:21;97243.13;;;10.78;64.13
30873;BME280;17579;42.690;2.586;2023-02-22T07:28:48;97243.81;;;10.80;64.28
30873;BME280;17579;42.690;2.586;2023-02-22T07:31:14;97244.47;;;10.82;64.25
30873;BME280;17579;42.690;2.586;2023-02-22T07:33:40;97240.56;;;10.86;64.35
30873;BME280;17579;42.690;2.586;2023-02-22T07:36:05;97228.56;;;10.91;64.57
30873;BME280;17579;42.690;2.586;2023-02-22T07:38:31;97233.44;;;10.96;64.33
30873;BME280;17579;42.690;2.586;2023-02-22T07:40:57;97225.88;;;11.01;64.35
30873;BME280;17579;42.690;2.586;2023-02-22T07:43:24;97228.75;;;11.08;64.63
30873;BME280;17579;42.690;2.586;2023-02-22T07:45:54;97226.47;;;11.13;64.54
30873;BME280;17579;42.690;2.586;2023-02-22T07:48:21;97232.56;;;11.23;64.58
30873;BME280;17579;42.690;2.586;2023-02-22T07:50:48;97239.59;;;11.33;64.43
30873;BME280;17579;42.690;2.586;2023-02-22T07:53:17;97248.31;;;11.43;64.16
30873;BME280;17579;42.690;2.586;2023-02-22T07:55:44;97249.75;;;11.55;64.02
30873;BME280;17579;42.690;2.586;2023-02-22T07:58:13;97248.00;;;11.64;63.91
30873;BME280;17579;42.690;2.586;2023-02-22T08:00:40;97254.88;;;11.75;63.60
30873;BME280;17579;42.690;2.586;2023-02-22T08:03:08;97249.97;;;11.80;63.00
30873;BME280;17579;42.690;2.586;2023-02-22T08:05:36;97254.66;;;11.86;62.72
30873;BME280;17579;42.690;2.586;2023-02-22T08:08:02;97260.56;;;11.98;62.69
30873;BME280;17579;42.690;2.586;2023-02-22T08:10:29;97254.19;;;12.09;62.60
30873;BME280;17579;42.690;2.586;2023-02-22T08:12:55;97261.09;;;12.20;62.39
30873;BME280;17579;42.690;2.586;2023-02-22T08:15:25;97264.09;;;12.25;62.14
30873;BME280;17579;42.690;2.586;2023-02-22T08:17:52;97265.97;;;12.33;61.94
30873;BME280;17579;42.690;2.586;2023-02-22T08:20:18;97266.31;;;12.38;61.90
30873;BME280;17579;42.690;2.586;2023-02-22T08:22:45;97268.81;;;12.39;62.03
30873;BME280;17579;42.690;2.586;2023-02-22T08:25:12;97268.97;;;12.38;62.27
30873;BME280;17579;42.690;2.586;2023-02-22T08:27:40;97272.59;;;12.37;61.83
30873;BME280;17579;42.690;2.586;2023-02-22T08:30:06;97266.09;;;12.31;62.14
30873;BME280;17579;42.690;2.586;2023-02-22T08:32:33;97266.09;;;12.31;62.51
30873;BME280;17579;42.690;2.586;2023-02-22T08:35:01;97279.75;;;12.36;62.25
30873;BME280;17579;42.690;2.586;2023-02-22T08:37:27;97274.97;;;12.40;62.32
30873;BME280;17579;42.690;2.586;2023-02-22T08:39:53;97279.66;;;12.46;62.55
30873;BME280;17579;42.690;2.586;2023-02-22T08:42:20;97273.88;;;12.51;61.92
30873;BME280;17579;42.690;2.586;2023-02-22T08:44:46;97275.72;;;12.58;61.62
30873;BME280;17579;42.690;2.586;2023-02-22T08:47:11;97265.47;;;12.63;61.58
30873;BME280;17579;42.690;2.586;2023-02-22T08:49:37;97267.50;;;12.70;61.57
30873;BME280;17579;42.690;2.586;2023-02-22T08:52:03;97266.88;;;12.76;61.15
30873;BME280;17579;42.690;2.586;2023-02-22T08:54:28;97264.72;;;12.79;60.63
30873;BME280;17579;42.690;2.586;2023-02-22T08:56:54;97273.06;;;12.85;60.71
30873;BME280;17579;42.690;2.586;2023-02-22T08:59:19;97266.13;;;12.92;60.96
30873;BME280;17579;42.690;2.586;2023-02-22T09:01:45;97263.47;;;13.00;60.51
30873;BME280;17579;42.690;2.586;2023-02-22T09:04:10;97268.81;;;13.08;60.53
30873;BME280;17579;42.690;2.586;2023-02-22T09:06:39;97265.69;;;13.13;60.46
30873;BME280;17579;42.690;2.586;2023-02-22T09:09:05;97267.53;;;13.21;60.71
30873;BME280;17579;42.690;2.586;2023-02-22T09:11:31;97264.22;;;13.18;60.55
30873;BME280;17579;42.690;2.586;2023-02-22T09:13:56;97266.53;;;13.13;60.61
30873;BME280;17579;42.690;2.586;2023-02-22T09:16:22;97262.69;;;13.08;60.87
30873;BME280;17579;42.690;2.586;2023-02-22T09:18:47;97266.66;;;13.04;60.95
30873;BME280;17579;42.690;2.586;2023-02-22T09:21:13;97267.47;;;13.04;60.89
30873;BME280;17579;42.690;2.586;2023-02-22T09:23:38;97260.38;;;13.05;61.15
30873;BME280;17579;42.690;2.586;2023-02-22T09:26:08;97266.34;;;13.07;60.85
30873;BME280;17579;42.690;2.586;2023-02-22T09:28:35;97255.38;;;13.10;60.96
30873;BME280;17579;42.690;2.586;2023-02-22T09:31:00;97256.91;;;13.12;61.08
30873;BME280;17579;42.690;2.586;2023-02-22T09:33:26;97254.75;;;13.16;60.99
30873;BME280;17579;42.690;2.586;2023-02-22T09:35:52;97251.44;;;13.22;60.36
30873;BME280;17579;42.690;2.586;2023-02-22T09:38:19;97253.44;;;13.28;60.74
30873;BME280;17579;42.690;2.586;2023-02-22T09:40:50;97250.28;;;13.33;60.98
30873;BME280;17579;42.690;2.586;2023-02-22T09:43:40;97250.03;;;13.36;60.19
30873;BME280;17579;42.690;2.586;2023-02-22T09:48:54;97250.56;;;13.56;60.91
30873;BME280;17579;42.690;2.586;2023-02-22T09:51:23;97243.41;;;13.73;60.01
30873;BME280;17579;42.690;2.586;2023-02-22T09:53:56;97241.75;;;13.80;60.84
30873;BME280;17579;42.690;2.586;2023-02-22T09:56:24;97254.22;;;13.96;60.10
30873;BME280;17579;42.690;2.586;2023-02-22T09:58:54;97241.59;;;13.98;59.92
30873;BME280;17579;42.690;2.586;2023-02-22T10:01:42;97251.91;;;13.93;59.91
30873;BME280;17579;42.690;2.586;2023-02-22T10:04:28;97248.25;;;13.94;59.68
30873;BME280;17579;42.690;2.586;2023-02-22T10:07:02;97248.41;;;13.93;58.89
30873;BME280;17579;42.690;2.586;2023-02-22T10:09:31;97257.22;;;13.93;58.59
30873;BME280;17579;42.690;2.586;2023-02-22T10:12:05;97252.75;;;13.94;58.76
30873;BME280;17579;42.690;2.586;2023-02-22T10:17:28;97248.59;;;13.99;58.65
30873;BME280;17579;42.690;2.586;2023-02-22T10:22:47;97246.94;;;14.07;58.63
30873;BME280;17579;42.690;2.586;2023-02-22T10:25:20;97245.09;;;14.07;58.74
30873;BME280;17579;42.690;2.586;2023-02-22T10:27:55;97244.91;;;14.09;58.64
30873;BME280;17579;42.690;2.586;2023-02-22T10:30:33;97248.09;;;14.12;58.48
30873;BME280;17579;42.690;2.586;2023-02-22T10:33:04;97256.53;;;14.16;58.20
30873;BME280;17579;42.690;2.586;2023-02-22T10:35:35;97247.56;;;14.17;58.83
30873;BME280;17579;42.690;2.586;2023-02-22T10:38:24;97238.91;;;14.15;58.48
30873;BME280;17579;42.690;2.586;2023-02-22T10:40:55;97242.41;;;14.24;58.75
30873;BME280;17579;42.690;2.586;2023-02-22T10:43:22;97243.25;;;14.32;58.81
30873;BME280;17579;42.690;2.586;2023-02-22T10:45:50;97246.38;;;14.36;58.29
30873;BME280;17579;42.690;2.586;2023-02-22T10:48:18;97240.53;;;14.41;58.77
30873;BME280;17579;42.690;2.586;2023-02-22T10:50:45;97243.53;;;14.46;58.42
30873;BME280;17579;42.690;2.586;2023-02-22T10:53:13;97246.34;;;14.52;58.23
30873;BME280;17579;42.690;2.586;2023-02-22T10:58:25;97237.66;;;14.75;57.39
30873;BME280;17579;42.690;2.586;2023-02-22T11:00:51;97238.66;;;14.74;57.43
30873;BME280;17579;42.690;2.586;2023-02-22T11:03:19;97236.31;;;14.71;56.93
30873;BME280;17579;42.690;2.586;2023-02-22T11:05:46;97234.81;;;14.77;56.64
30873;BME280;17579;42.690;2.586;2023-02-22T11:08:15;97233.00;;;14.77;56.80
30873;BME280;17579;42.690;2.586;2023-02-22T11:10:41;97227.16;;;14.73;56.93
30873;BME280;17579;42.690;2.586;2023-02-22T11:15:37;97227.34;;;14.72;56.72
30873;BME280;17579;42.690;2.586;2023-02-22T11:18:03;97219.34;;;14.72;56.50
30873;BME280;17579;42.690;2.586;2023-02-22T11:20:32;97221.56;;;14.68;56.59
30873;BME280;17579;42.690;2.586;2023-02-22T11:23:03;97208.88;;;14.70;57.00
30873;BME280;17579;42.690;2.586;2023-02-22T11:25:33;97210.06;;;14.68;56.92
30873;BME280;17579;42.690;2.586;2023-02-22T11:30:31;97208.34;;;14.75;56.62
30873;BME280;17579;42.690;2.586;2023-02-22T11:33:02;97212.88;;;14.75;56.87
30873;BME280;17579;42.690;2.586;2023-02-22T11:35:35;97210.03;;;14.76;57.33
30873;BME280;17579;42.690;2.586;2023-02-22T11:40:28;97203.81;;;14.92;57.45
30873;BME280;17579;42.690;2.586;2023-02-22T11:43:06;97199.78;;;14.96;57.29
30873;BME280;17579;42.690;2.586;2023-02-22T11:45:37;97199.75;;;15.04;56.91
30873;BME280;17579;42.690;2.586;2023-02-22T11:48:05;97203.22;;;15.05;57.04
30873;BME280;17579;42.690;2.586;2023-02-22T11:50:53;97191.75;;;15.04;57.22
30873;BME280;17579;42.690;2.586;2023-02-22T11:59:01;97183.03;;;15.19;57.05
30873;BME280;17579;42.690;2.586;2023-02-22T12:01:54;97189.41;;;15.33;57.00
30873;BME280;17579;42.690;2.586;2023-02-22T12:04:34;97182.31;;;15.48;56.57
30873;BME280;17579;42.690;2.586;2023-02-22T12:07:28;97179.41;;;15.58;56.68
30873;BME280;17579;42.690;2.586;2023-02-22T12:10:00;97185.38;;;15.60;56.19
30873;BME280;17579;42.690;2.586;2023-02-22T12:12:33;97184.94;;;15.56;55.73
30873;BME280;17579;42.690;2.586;2023-02-22T12:17:59;97178.66;;;15.49;56.38
30873;BME280;17579;42.690;2.586;2023-02-22T12:20:35;97175.06;;;15.57;56.10
30873;BME280;17579;42.690;2.586;2023-02-22T12:23:14;97169.34;;;15.45;56.08
30873;BME280;17579;42.690;2.586;2023-02-22T12:28:15;97170.06;;;15.39;56.17
30873;BME280;17579;42.690;2.586;2023-02-22T12:30:46;97177.56;;;15.35;56.03
30873;BME280;17579;42.690;2.586;2023-02-22T12:33:18;97177.09;;;15.32;56.69
30873;BME280;17579;42.690;2.586;2023-02-22T12:35:48;97179.47;;;15.27;56.77
30873;BME280;17579;42.690;2.586;2023-02-22T12:38:36;97174.34;;;15.17;57.09
30873;BME280;17579;42.690;2.586;2023-02-22T12:41:06;97173.50;;;15.24;56.76
30873;BME280;17579;42.690;2.586;2023-02-22T12:43:40;97164.38;;;15.19;56.08
30873;BME280;17579;42.690;2.586;2023-02-22T12:46:30;97170.75;;;15.10;56.59
30873;BME280;17579;42.690;2.586;2023-02-22T12:49:21;97164.78;;;15.07;56.37
30873;BME280;17579;42.690;2.586;2023-02-22T12:51:57;97164.41;;;15.11;55.89
30873;BME280;17579;42.690;2.586;2023-02-22T12:57:33;97164.81;;;14.99;56.50
30873;BME280;17579;42.690;2.586;2023-02-22T13:00:05;97159.81;;;14.65;57.49
30873;BME280;17579;42.690;2.586;2023-02-22T13:02:37;97171.19;;;14.42;58.77
30873;BME280;17579;42.690;2.586;2023-02-22T13:05:13;97173.22;;;14.32;59.86
30873;BME280;17579;42.690;2.586;2023-02-22T13:07:45;97163.44;;;14.24;60.16
30873;BME280;17579;42.690;2.586;2023-02-22T13:10:25;97175.59;;;14.02;60.58
30873;BME280;17579;42.690;2.586;2023-02-22T13:12:58;97168.66;;;14.01;62.02
30873;BME280;17579;42.690;2.586;2023-02-22T13:15:39;97171.31;;;13.93;61.48
30873;BME280;17579;42.690;2.586;2023-02-22T13:18:13;97162.50;;;13.92;62.20
30873;BME280;17579;42.690;2.586;2023-02-22T13:28:39;97162.50;;;13.92;63.51
30873;BME280;17579;42.690;2.586;2023-02-22T13:34:14;97157.00;;;14.02;63.62
30873;BME280;17579;42.690;2.586;2023-02-22T13:37:13;97146.19;;;14.03;63.69
30873;BME280;17579;42.690;2.586;2023-02-22T13:53:11;97144.56;;;13.86;63.64
30873;BME280;17579;42.690;2.586;2023-02-22T13:55:40;97147.22;;;13.86;63.54
30873;BME280;17579;42.690;2.586;2023-02-22T13:58:10;97145.56;;;13.85;63.41
30873;BME280;17579;42.690;2.586;2023-02-22T14:00:57;97141.59;;;13.81;63.88
30873;BME280;17579;42.690;2.586;2023-02-22T14:05:52;97138.53;;;14.00;64.15
30873;BME280;17579;42.690;2.586;2023-02-22T14:08:40;97140.03;;;14.03;64.21
30873;BME280;17579;42.690;2.586;2023-02-22T14:16:38;97116.81;;;14.36;63.61
30873;BME280;17579;42.690;2.586;2023-02-22T14:21:33;97119.06;;;14.56;63.69
30873;BME280;17579;42.690;2.586;2023-02-22T14:24:15;97120.56;;;14.67;63.56
30873;BME280;17579;42.690;2.586;2023-02-22T14:26:54;97117.81;;;14.83;62.94
30873;BME280;17579;42.690;2.586;2023-02-22T14:29:21;97119.66;;;15.06;62.80
30873;BME280;17579;42.690;2.586;2023-02-22T14:32:03;97119.63;;;15.14;62.44
30873;BME280;17579;42.690;2.586;2023-02-22T14:37:16;97120.78;;;15.12;62.65
30873;BME280;17579;42.690;2.586;2023-02-22T14:39:48;97115.88;;;15.00;62.51
30873;BME280;17579;42.690;2.586;2023-02-22T14:42:20;97129.56;;;14.97;61.76